Terminal Aerodrome Forecast
Issued by NWS

Home | Current Version | Previous Version | Text Only | Print | Product List | Glossary On
Versions: 1 2 3 4 5 6 7 8 9 10 11 12
000
FTUS41 KBTV 270520
TAFSLK
TAF
KSLK 270520Z 2706/2806 22004KT P6SM SCT100
      TEMPO 2712/2714 6SM -SHRA BKN040
     FM271400 22014G24KT P6SM SCT050 SCT200
     FM271600 23014G24KT P6SM VCTS BKN040CB
     FM272000 22010KT P6SM BKN045=

USA.gov is the U.S. government's official web portal to all federal, state and local government web resources and services.